sensor_id;sensor_type;location;lat;lon;timestamp;temperature;humidity
30244;DHT22;64022;53.652;9.792;2023-07-30T00:01:05;23.70;70.30
30244;DHT22;64022;53.652;9.792;2023-07-30T00:03:31;23.70;70.30
30244;DHT22;64022;53.652;9.792;2023-07-30T00:05:56;23.70;70.30
30244;DHT22;64022;53.652;9.792;2023-07-30T00:08:22;23.70;70.30
30244;DHT22;64022;53.652;9.792;2023-07-30T00:10:48;23.70;70.30
30244;DHT22;64022;53.652;9.792;2023-07-30T00:13:13;23.70;70.30
30244;DHT22;64022;53.652;9.792;2023-07-30T00:15:39;23.70;70.30
30244;DHT22;64022;53.652;9.792;2023-07-30T00:18:05;23.70;70.30
30244;DHT22;64022;53.652;9.792;2023-07-30T00:20:30;23.70;70.30
30244;DHT22;64022;53.652;9.792;2023-07-30T00:22:56;23.70;70.30
30244;DHT22;64022;53.652;9.792;2023-07-30T00:25:21;23.70;70.30
30244;DHT22;64022;53.652;9.792;2023-07-30T00:27:47;23.70;70.30
30244;DHT22;64022;53.652;9.792;2023-07-30T00:30:12;23.70;70.30
30244;DHT22;64022;53.652;9.792;2023-07-30T00:32:38;23.70;70.30
30244;DHT22;64022;53.652;9.792;2023-07-30T00:35:09;23.70;70.30
30244;DHT22;64022;53.652;9.792;2023-07-30T00:37:34;23.70;70.30
30244;DHT22;64022;53.652;9.792;2023-07-30T00:40:00;23.70;70.30
30244;DHT22;64022;53.652;9.792;2023-07-30T00:42:25;23.70;70.30
30244;DHT22;64022;53.652;9.792;2023-07-30T00:44:51;23.70;70.30
30244;DHT22;64022;53.652;9.792;2023-07-30T00:47:16;23.70;70.30
30244;DHT22;64022;53.652;9.792;2023-07-30T00:49:42;23.70;70.30
30244;DHT22;64022;53.652;9.792;2023-07-30T00:52:07;23.70;70.30
30244;DHT22;64022;53.652;9.792;2023-07-30T00:54:33;23.70;70.30
30244;DHT22;64022;53.652;9.792;2023-07-30T00:56:59;23.70;70.30
30244;DHT22;64022;53.652;9.792;2023-07-30T00:59:25;23.70;70.30
30244;DHT22;64022;53.652;9.792;2023-07-30T01:01:51;23.70;70.30
30244;DHT22;64022;53.652;9.792;2023-07-30T01:04:17;23.70;70.20
30244;DHT22;64022;53.652;9.792;2023-07-30T01:06:43;23.70;70.20
30244;DHT22;64022;53.652;9.792;2023-07-30T01:09:08;23.70;70.20
30244;DHT22;64022;53.652;9.792;2023-07-30T01:11:34;23.70;70.20
30244;DHT22;64022;53.652;9.792;2023-07-30T01:14:00;23.70;70.20
30244;DHT22;64022;53.652;9.792;2023-07-30T01:16:26;23.70;70.20
30244;DHT22;64022;53.652;9.792;2023-07-30T01:18:52;23.70;70.20
30244;DHT22;64022;53.652;9.792;2023-07-30T01:21:17;23.70;70.20
30244;DHT22;64022;53.652;9.792;2023-07-30T01:23:43;23.70;70.20
30244;DHT22;64022;53.652;9.792;2023-07-30T01:26:09;23.70;70.20
30244;DHT22;64022;53.652;9.792;2023-07-30T01:28:41;23.70;70.20
30244;DHT22;64022;53.652;9.792;2023-07-30T01:31:08;23.70;70.20
30244;DHT22;64022;53.652;9.792;2023-07-30T01:33:35;23.70;70.20
30244;DHT22;64022;53.652;9.792;2023-07-30T01:36:01;23.70;70.10
30244;DHT22;64022;53.652;9.792;2023-07-30T01:38:27;23.70;70.10
30244;DHT22;64022;53.652;9.792;2023-07-30T01:40:52;23.70;70.10
30244;DHT22;64022;53.652;9.792;2023-07-30T01:43:18;23.70;70.10
30244;DHT22;64022;53.652;9.792;2023-07-30T01:45:43;23.70;70.10
30244;DHT22;64022;53.652;9.792;2023-07-30T01:48:08;23.70;70.10
30244;DHT22;64022;53.652;9.792;2023-07-30T01:50:34;23.70;70.10
30244;DHT22;64022;53.652;9.792;2023-07-30T01:52:59;23.70;70.10
30244;DHT22;64022;53.652;9.792;2023-07-30T01:55:25;23.70;70.10
30244;DHT22;64022;53.652;9.792;2023-07-30T01:57:50;23.70;70.10
30244;DHT22;64022;53.652;9.792;2023-07-30T02:00:16;23.70;70.60
30244;DHT22;64022;53.652;9.792;2023-07-30T02:02:41;23.70;70.10
30244;DHT22;64022;53.652;9.792;2023-07-30T02:05:07;23.70;70.00
30244;DHT22;64022;53.652;9.792;2023-07-30T02:07:32;23.70;70.00
30244;DHT22;64022;53.652;9.792;2023-07-30T02:09:58;23.70;70.00
30244;DHT22;64022;53.652;9.792;2023-07-30T02:12:23;23.70;70.00
30244;DHT22;64022;53.652;9.792;2023-07-30T02:14:49;23.70;70.00
30244;DHT22;64022;53.652;9.792;2023-07-30T02:17:14;23.70;70.00
30244;DHT22;64022;53.652;9.792;2023-07-30T02:19:39;23.70;70.00
30244;DHT22;64022;53.652;9.792;2023-07-30T02:22:05;23.70;70.00
30244;DHT22;64022;53.652;9.792;2023-07-30T02:24:30;23.70;70.00
30244;DHT22;64022;53.652;9.792;2023-07-30T02:26:56;23.70;70.00
30244;DHT22;64022;53.652;9.792;2023-07-30T02:29:21;23.70;69.90
30244;DHT22;64022;53.652;9.792;2023-07-30T02:31:47;23.70;69.90
30244;DHT22;64022;53.652;9.792;2023-07-30T02:34:12;23.70;69.90
30244;DHT22;64022;53.652;9.792;2023-07-30T02:36:37;23.70;69.90
30244;DHT22;64022;53.652;9.792;2023-07-30T02:39:03;23.70;69.90
30244;DHT22;64022;53.652;9.792;2023-07-30T02:41:28;23.70;69.90
30244;DHT22;64022;53.652;9.792;2023-07-30T02:43:54;23.70;69.90
30244;DHT22;64022;53.652;9.792;2023-07-30T02:46:19;23.70;69.90
30244;DHT22;64022;53.652;9.792;2023-07-30T02:48:45;23.70;69.90
30244;DHT22;64022;53.652;9.792;2023-07-30T02:51:10;23.70;69.80
30244;DHT22;64022;53.652;9.792;2023-07-30T02:53:36;23.70;69.80
30244;DHT22;64022;53.652;9.792;2023-07-30T02:56:01;23.70;69.80
30244;DHT22;64022;53.652;9.792;2023-07-30T02:58:27;23.70;69.80
30244;DHT22;64022;53.652;9.792;2023-07-30T03:00:52;23.70;69.80
30244;DHT22;64022;53.652;9.792;2023-07-30T03:03:18;23.70;69.80
30244;DHT22;64022;53.652;9.792;2023-07-30T03:05:43;23.70;69.70
30244;DHT22;64022;53.652;9.792;2023-07-30T03:08:08;23.70;69.70
30244;DHT22;64022;53.652;9.792;2023-07-30T03:10:36;23.70;69.70
30244;DHT22;64022;53.652;9.792;2023-07-30T03:13:01;23.70;69.70
30244;DHT22;64022;53.652;9.792;2023-07-30T03:15:26;23.70;69.70
30244;DHT22;64022;53.652;9.792;2023-07-30T03:17:52;23.70;69.70
30244;DHT22;64022;53.652;9.792;2023-07-30T03:20:17;23.70;69.70
30244;DHT22;64022;53.652;9.792;2023-07-30T03:22:43;23.70;69.60
30244;DHT22;64022;53.652;9.792;2023-07-30T03:25:08;23.70;69.60
30244;DHT22;64022;53.652;9.792;2023-07-30T03:27:34;23.70;69.60
30244;DHT22;64022;53.652;9.792;2023-07-30T03:29:59;23.70;69.60
30244;DHT22;64022;53.652;9.792;2023-07-30T03:32:25;23.60;69.60
30244;DHT22;64022;53.652;9.792;2023-07-30T03:34:50;23.70;69.60
30244;DHT22;64022;53.652;9.792;2023-07-30T03:37:16;23.70;69.60
30244;DHT22;64022;53.652;9.792;2023-07-30T03:39:41;23.70;69.60
30244;DHT22;64022;53.652;9.792;2023-07-30T03:42:06;23.70;69.50
30244;DHT22;64022;53.652;9.792;2023-07-30T03:44:32;23.60;69.50
30244;DHT22;64022;53.652;9.792;2023-07-30T03:46:57;23.60;69.40
30244;DHT22;64022;53.652;9.792;2023-07-30T03:49:23;23.70;69.50
30244;DHT22;64022;53.652;9.792;2023-07-30T03:51:48;23.60;69.40
30244;DHT22;64022;53.652;9.792;2023-07-30T03:54:14;23.60;69.40
30244;DHT22;64022;53.652;9.792;2023-07-30T03:56:39;23.60;69.40
30244;DHT22;64022;53.652;9.792;2023-07-30T03:59:05;23.60;69.40
30244;DHT22;64022;53.652;9.792;2023-07-30T04:01:30;23.60;69.80
30244;DHT22;64022;53.652;9.792;2023-07-30T04:03:56;23.60;69.30
30244;DHT22;64022;53.652;9.792;2023-07-30T04:06:21;23.60;69.30
30244;DHT22;64022;53.652;9.792;2023-07-30T04:08:46;23.60;69.30
30244;DHT22;64022;53.652;9.792;2023-07-30T04:11:12;23.60;69.30
30244;DHT22;64022;53.652;9.792;2023-07-30T04:13:37;23.60;69.30
30244;DHT22;64022;53.652;9.792;2023-07-30T04:16:03;23.60;69.40
30244;DHT22;64022;53.652;9.792;2023-07-30T04:18:28;23.60;69.40
30244;DHT22;64022;53.652;9.792;2023-07-30T04:20:54;23.60;69.40
30244;DHT22;64022;53.652;9.792;2023-07-30T04:23:21;23.70;69.40
30244;DHT22;64022;53.652;9.792;2023-07-30T04:25:48;23.60;69.40
30244;DHT22;64022;53.652;9.792;2023-07-30T04:28:14;23.70;69.50
30244;DHT22;64022;53.652;9.792;2023-07-30T04:30:39;23.70;69.40
30244;DHT22;64022;53.652;9.792;2023-07-30T04:33:04;23.70;69.40
30244;DHT22;64022;53.652;9.792;2023-07-30T04:35:30;23.70;69.40
30244;DHT22;64022;53.652;9.792;2023-07-30T04:37:55;23.70;69.40
30244;DHT22;64022;53.652;9.792;2023-07-30T04:40:21;23.70;69.40
30244;DHT22;64022;53.652;9.792;2023-07-30T04:42:46;23.70;69.40
30244;DHT22;64022;53.652;9.792;2023-07-30T04:45:11;23.80;69.50
30244;DHT22;64022;53.652;9.792;2023-07-30T04:47:37;23.70;69.40
30244;DHT22;64022;53.652;9.792;2023-07-30T04:50:03;23.70;69.40
30244;DHT22;64022;53.652;9.792;2023-07-30T04:52:28;23.80;69.50
30244;DHT22;64022;53.652;9.792;2023-07-30T04:54:53;23.80;69.50
30244;DHT22;64022;53.652;9.792;2023-07-30T04:57:19;23.80;69.50
30244;DHT22;64022;53.652;9.792;2023-07-30T04:59:44;23.80;69.50
30244;DHT22;64022;53.652;9.792;2023-07-30T05:02:10;23.80;69.50
30244;DHT22;64022;53.652;9.792;2023-07-30T05:04:35;23.80;69.50
30244;DHT22;64022;53.652;9.792;2023-07-30T05:07:01;23.80;69.50
30244;DHT22;64022;53.652;9.792;2023-07-30T05:09:26;23.80;69.50
30244;DHT22;64022;53.652;9.792;2023-07-30T05:11:52;23.90;69.50
30244;DHT22;64022;53.652;9.792;2023-07-30T05:14:17;23.80;69.50
30244;DHT22;64022;53.652;9.792;2023-07-30T05:16:42;23.90;69.50
30244;DHT22;64022;53.652;9.792;2023-07-30T05:19:08;23.90;69.50
30244;DHT22;64022;53.652;9.792;2023-07-30T05:21:33;23.90;69.50
30244;DHT22;64022;53.652;9.792;2023-07-30T05:23:59;23.90;69.50
30244;DHT22;64022;53.652;9.792;2023-07-30T05:26:24;23.90;69.40
30244;DHT22;64022;53.652;9.792;2023-07-30T05:28:50;23.90;69.40
30244;DHT22;64022;53.652;9.792;2023-07-30T05:31:15;23.90;69.40
30244;DHT22;64022;53.652;9.792;2023-07-30T05:33:40;23.90;69.40
30244;DHT22;64022;53.652;9.792;2023-07-30T05:36:06;23.90;69.40
30244;DHT22;64022;53.652;9.792;2023-07-30T05:38:31;23.90;69.40
30244;DHT22;64022;53.652;9.792;2023-07-30T05:40:57;23.90;69.40
30244;DHT22;64022;53.652;9.792;2023-07-30T05:43:22;23.90;69.40
30244;DHT22;64022;53.652;9.792;2023-07-30T05:45:48;23.90;69.40
30244;DHT22;64022;53.652;9.792;2023-07-30T05:48:13;23.90;69.30
30244;DHT22;64022;53.652;9.792;2023-07-30T05:50:39;23.90;69.40
30244;DHT22;64022;53.652;9.792;2023-07-30T05:53:04;23.90;69.30
30244;DHT22;64022;53.652;9.792;2023-07-30T05:55:30;23.90;69.40
30244;DHT22;64022;53.652;9.792;2023-07-30T05:57:55;23.90;69.30
30244;DHT22;64022;53.652;9.792;2023-07-30T06:00:20;23.90;69.30
30244;DHT22;64022;53.652;9.792;2023-07-30T06:02:46;23.90;69.30
30244;DHT22;64022;53.652;9.792;2023-07-30T06:05:11;23.90;69.20
30244;DHT22;64022;53.652;9.792;2023-07-30T06:07:37;23.90;69.20
30244;DHT22;64022;53.652;9.792;2023-07-30T06:10:02;24.00;69.20
30244;DHT22;64022;53.652;9.792;2023-07-30T06:12:28;24.00;69.20
30244;DHT22;64022;53.652;9.792;2023-07-30T06:14:53;24.00;69.20
30244;DHT22;64022;53.652;9.792;2023-07-30T06:17:19;24.00;69.20
30244;DHT22;64022;53.652;9.792;2023-07-30T06:19:46;24.00;69.20
30244;DHT22;64022;53.652;9.792;2023-07-30T06:22:11;24.00;69.20
30244;DHT22;64022;53.652;9.792;2023-07-30T06:24:37;24.00;69.20
30244;DHT22;64022;53.652;9.792;2023-07-30T06:27:02;24.00;69.10
30244;DHT22;64022;53.652;9.792;2023-07-30T06:29:28;24.00;69.10
30244;DHT22;64022;53.652;9.792;2023-07-30T06:31:53;24.00;69.10
30244;DHT22;64022;53.652;9.792;2023-07-30T06:34:18;24.00;69.10
30244;DHT22;64022;53.652;9.792;2023-07-30T06:36:44;24.00;69.10
30244;DHT22;64022;53.652;9.792;2023-07-30T06:39:09;24.00;69.60
30244;DHT22;64022;53.652;9.792;2023-07-30T06:41:35;24.10;69.20
30244;DHT22;64022;53.652;9.792;2023-07-30T06:44:00;24.10;69.20
30244;DHT22;64022;53.652;9.792;2023-07-30T06:46:26;24.00;69.10
30244;DHT22;64022;53.652;9.792;2023-07-30T06:48:51;24.10;69.10
30244;DHT22;64022;53.652;9.792;2023-07-30T06:51:18;24.10;69.10
30244;DHT22;64022;53.652;9.792;2023-07-30T06:53:44;24.10;69.10
30244;DHT22;64022;53.652;9.792;2023-07-30T06:56:09;24.10;69.10
30244;DHT22;64022;53.652;9.792;2023-07-30T06:58:35;24.10;69.00
30244;DHT22;64022;53.652;9.792;2023-07-30T07:01:00;24.10;68.80
30244;DHT22;64022;53.652;9.792;2023-07-30T07:03:26;24.10;68.70
30244;DHT22;64022;53.652;9.792;2023-07-30T07:05:54;24.10;68.50
30244;DHT22;64022;53.652;9.792;2023-07-30T07:08:20;24.00;68.40
30244;DHT22;64022;53.652;9.792;2023-07-30T07:10:45;24.00;68.30
30244;DHT22;64022;53.652;9.792;2023-07-30T07:13:11;24.00;68.30
30244;DHT22;64022;53.652;9.792;2023-07-30T07:15:40;24.00;68.30
30244;DHT22;64022;53.652;9.792;2023-07-30T07:18:06;24.00;68.30
30244;DHT22;64022;53.652;9.792;2023-07-30T07:20:31;24.00;68.20
30244;DHT22;64022;53.652;9.792;2023-07-30T07:22:57;23.90;68.20
30244;DHT22;64022;53.652;9.792;2023-07-30T07:25:22;23.90;68.20
30244;DHT22;64022;53.652;9.792;2023-07-30T07:27:48;23.90;68.20
30244;DHT22;64022;53.652;9.792;2023-07-30T07:30:13;23.90;68.20
30244;DHT22;64022;53.652;9.792;2023-07-30T07:32:39;23.90;68.20
30244;DHT22;64022;53.652;9.792;2023-07-30T07:35:04;23.90;68.20
30244;DHT22;64022;53.652;9.792;2023-07-30T07:37:31;23.90;68.10
30244;DHT22;64022;53.652;9.792;2023-07-30T07:39:57;23.90;68.10
30244;DHT22;64022;53.652;9.792;2023-07-30T07:42:22;23.90;68.10
30244;DHT22;64022;53.652;9.792;2023-07-30T07:44:48;23.90;68.10
30244;DHT22;64022;53.652;9.792;2023-07-30T07:47:13;23.80;68.00
30244;DHT22;64022;53.652;9.792;2023-07-30T07:49:38;23.90;68.00
30244;DHT22;64022;53.652;9.792;2023-07-30T07:52:04;23.90;68.00
30244;DHT22;64022;53.652;9.792;2023-07-30T07:54:30;23.90;68.00
30244;DHT22;64022;53.652;9.792;2023-07-30T07:56:55;23.80;68.00
30244;DHT22;64022;53.652;9.792;2023-07-30T07:59:21;23.80;68.00
30244;DHT22;64022;53.652;9.792;2023-07-30T08:01:46;23.80;68.00
30244;DHT22;64022;53.652;9.792;2023-07-30T08:04:11;23.80;68.00
30244;DHT22;64022;53.652;9.792;2023-07-30T08:06:37;23.90;68.10
30244;DHT22;64022;53.652;9.792;2023-07-30T08:09:02;23.90;68.10
30244;DHT22;64022;53.652;9.792;2023-07-30T08:11:28;23.90;68.10
30244;DHT22;64022;53.652;9.792;2023-07-30T08:13:53;23.90;68.00
30244;DHT22;64022;53.652;9.792;2023-07-30T08:16:19;23.90;68.00
30244;DHT22;64022;53.652;9.792;2023-07-30T08:18:44;23.90;67.90
30244;DHT22;64022;53.652;9.792;2023-07-30T08:21:10;23.90;67.90
30244;DHT22;64022;53.652;9.792;2023-07-30T08:23:35;23.90;67.90
30244;DHT22;64022;53.652;9.792;2023-07-30T08:26:00;23.90;68.00
30244;DHT22;64022;53.652;9.792;2023-07-30T08:28:26;23.90;68.10
30244;DHT22;64022;53.652;9.792;2023-07-30T08:30:51;23.90;68.10
30244;DHT22;64022;53.652;9.792;2023-07-30T08:33:17;24.00;68.20
30244;DHT22;64022;53.652;9.792;2023-07-30T08:35:42;24.00;68.10
30244;DHT22;64022;53.652;9.792;2023-07-30T08:38:08;24.00;68.10
30244;DHT22;64022;53.652;9.792;2023-07-30T08:40:33;24.00;68.10
30244;DHT22;64022;53.652;9.792;2023-07-30T08:42:59;24.00;68.00
30244;DHT22;64022;53.652;9.792;2023-07-30T08:45:24;24.00;68.00
30244;DHT22;64022;53.652;9.792;2023-07-30T08:47:49;24.00;68.00
30244;DHT22;64022;53.652;9.792;2023-07-30T08:50:15;24.00;68.00
30244;DHT22;64022;53.652;9.792;2023-07-30T08:52:40;24.10;68.00
30244;DHT22;64022;53.652;9.792;2023-07-30T08:55:06;24.00;67.90
30244;DHT22;64022;53.652;9.792;2023-07-30T08:57:32;24.10;68.00
30244;DHT22;64022;53.652;9.792;2023-07-30T09:02:34;24.10;68.00
30244;DHT22;64022;53.652;9.792;2023-07-30T09:05:03;24.10;68.00
30244;DHT22;64022;53.652;9.792;2023-07-30T09:07:29;24.10;68.00
30244;DHT22;64022;53.652;9.792;2023-07-30T09:09:54;24.20;68.00
30244;DHT22;64022;53.652;9.792;2023-07-30T09:12:25;24.20;67.80
30244;DHT22;64022;53.652;9.792;2023-07-30T09:14:50;24.10;67.60
30244;DHT22;64022;53.652;9.792;2023-07-30T09:17:19;24.10;67.50
30244;DHT22;64022;53.652;9.792;2023-07-30T09:19:44;24.10;67.50
30244;DHT22;64022;53.652;9.792;2023-07-30T09:22:12;24.10;67.40
30244;DHT22;64022;53.652;9.792;2023-07-30T09:24:41;24.10;67.40
30244;DHT22;64022;53.652;9.792;2023-07-30T09:27:07;24.10;67.40
30244;DHT22;64022;53.652;9.792;2023-07-30T09:29:32;24.10;67.40
30244;DHT22;64022;53.652;9.792;2023-07-30T09:31:58;24.10;67.40
30244;DHT22;64022;53.652;9.792;2023-07-30T09:34:24;24.10;67.50
30244;DHT22;64022;53.652;9.792;2023-07-30T09:36:50;24.10;67.50
30244;DHT22;64022;53.652;9.792;2023-07-30T09:39:20;24.10;67.50
30244;DHT22;64022;53.652;9.792;2023-07-30T09:41:46;24.10;67.50
30244;DHT22;64022;53.652;9.792;2023-07-30T09:44:11;24.20;67.50
30244;DHT22;64022;53.652;9.792;2023-07-30T09:46:44;24.20;67.50
30244;DHT22;64022;53.652;9.792;2023-07-30T09:49:10;24.20;67.50
30244;DHT22;64022;53.652;9.792;2023-07-30T09:51:39;24.20;67.40
30244;DHT22;64022;53.652;9.792;2023-07-30T09:54:09;24.20;67.40
30244;DHT22;64022;53.652;9.792;2023-07-30T09:56:38;24.20;67.30
30244;DHT22;64022;53.652;9.792;2023-07-30T09:59:04;24.20;67.30
30244;DHT22;64022;53.652;9.792;2023-07-30T10:01:30;24.20;67.30
30244;DHT22;64022;53.652;9.792;2023-07-30T10:03:56;24.20;67.20
30244;DHT22;64022;53.652;9.792;2023-07-30T10:06:23;24.20;67.20
30244;DHT22;64022;53.652;9.792;2023-07-30T10:08:49;24.20;67.10
30244;DHT22;64022;53.652;9.792;2023-07-30T10:11:16;24.20;67.10
30244;DHT22;64022;53.652;9.792;2023-07-30T10:13:41;24.20;67.10
30244;DHT22;64022;53.652;9.792;2023-07-30T10:16:10;24.20;67.00
30244;DHT22;64022;53.652;9.792;2023-07-30T10:18:39;24.30;67.00
30244;DHT22;64022;53.652;9.792;2023-07-30T10:21:09;24.20;66.90
30244;DHT22;64022;53.652;9.792;2023-07-30T10:23:35;24.30;66.90
30244;DHT22;64022;53.652;9.792;2023-07-30T10:26:08;24.30;66.80
30244;DHT22;64022;53.652;9.792;2023-07-30T10:28:35;24.30;66.80
30244;DHT22;64022;53.652;9.792;2023-07-30T10:31:04;24.30;66.70
30244;DHT22;64022;53.652;9.792;2023-07-30T10:36:10;24.20;66.40
30244;DHT22;64022;53.652;9.792;2023-07-30T10:38:36;24.30;66.30
30244;DHT22;64022;53.652;9.792;2023-07-30T10:41:02;24.20;66.20
30244;DHT22;64022;53.652;9.792;2023-07-30T10:43:36;24.30;66.20
30244;DHT22;64022;53.652;9.792;2023-07-30T10:46:02;24.20;66.10
30244;DHT22;64022;53.652;9.792;2023-07-30T10:48:37;24.30;66.10
30244;DHT22;64022;53.652;9.792;2023-07-30T10:51:26;24.20;66.10
30244;DHT22;64022;53.652;9.792;2023-07-30T10:53:49;24.20;66.00
30244;DHT22;64022;53.652;9.792;2023-07-30T10:56:16;24.20;66.00
30244;DHT22;64022;53.652;9.792;2023-07-30T10:58:41;24.20;65.80
30244;DHT22;64022;53.652;9.792;2023-07-30T11:01:08;24.30;65.80
30244;DHT22;64022;53.652;9.792;2023-07-30T11:03:33;24.20;65.70
30244;DHT22;64022;53.652;9.792;2023-07-30T11:05:59;24.30;65.70
30244;DHT22;64022;53.652;9.792;2023-07-30T11:08:54;24.30;66.20
30244;DHT22;64022;53.652;9.792;2023-07-30T11:11:17;24.30;65.60
30244;DHT22;64022;53.652;9.792;2023-07-30T11:13:44;24.30;65.50
30244;DHT22;64022;53.652;9.792;2023-07-30T11:16:11;24.30;65.50
30244;DHT22;64022;53.652;9.792;2023-07-30T11:18:37;24.30;65.40
30244;DHT22;64022;53.652;9.792;2023-07-30T11:21:03;24.30;65.30
30244;DHT22;64022;53.652;9.792;2023-07-30T11:23:29;24.40;65.30
30244;DHT22;64022;53.652;9.792;2023-07-30T11:25:54;24.40;65.30
30244;DHT22;64022;53.652;9.792;2023-07-30T11:31:01;24.40;65.10
30244;DHT22;64022;53.652;9.792;2023-07-30T11:33:27;24.40;65.00
30244;DHT22;64022;53.652;9.792;2023-07-30T11:35:54;24.40;65.00
30244;DHT22;64022;53.652;9.792;2023-07-30T11:38:19;24.40;65.40
30244;DHT22;64022;53.652;9.792;2023-07-30T11:40:46;24.40;64.80
30244;DHT22;64022;53.652;9.792;2023-07-30T11:43:12;24.40;64.70
30244;DHT22;64022;53.652;9.792;2023-07-30T11:45:38;24.40;64.60
30244;DHT22;64022;53.652;9.792;2023-07-30T11:48:07;24.40;64.60
30244;DHT22;64022;53.652;9.792;2023-07-30T11:50:52;24.40;64.50
30244;DHT22;64022;53.652;9.792;2023-07-30T11:53:18;24.40;64.40
30244;DHT22;64022;53.652;9.792;2023-07-30T11:55:44;24.40;64.30
30244;DHT22;64022;53.652;9.792;2023-07-30T11:58:10;24.40;64.30
30244;DHT22;64022;53.652;9.792;2023-07-30T12:00:36;24.40;64.30
30244;DHT22;64022;53.652;9.792;2023-07-30T12:03:02;24.40;64.20
30244;DHT22;64022;53.652;9.792;2023-07-30T12:05:32;24.50;64.20
30244;DHT22;64022;53.652;9.792;2023-07-30T12:07:58;24.40;64.10
30244;DHT22;64022;53.652;9.792;2023-07-30T12:10:27;24.50;64.10
30244;DHT22;64022;53.652;9.792;2023-07-30T12:12:53;24.50;64.10
30244;DHT22;64022;53.652;9.792;2023-07-30T12:15:18;24.50;64.00
30244;DHT22;64022;53.652;9.792;2023-07-30T12:17:44;24.50;64.00
30244;DHT22;64022;53.652;9.792;2023-07-30T12:20:11;24.50;64.00
30244;DHT22;64022;53.652;9.792;2023-07-30T12:22:36;24.50;63.90
30244;DHT22;64022;53.652;9.792;2023-07-30T12:25:03;24.50;63.80
30244;DHT22;64022;53.652;9.792;2023-07-30T12:27:29;24.50;63.80
30244;DHT22;64022;53.652;9.792;2023-07-30T12:29:55;24.50;63.70
30244;DHT22;64022;53.652;9.792;2023-07-30T12:32:20;24.50;63.70
30244;DHT22;64022;53.652;9.792;2023-07-30T12:34:46;24.50;63.70
30244;DHT22;64022;53.652;9.792;2023-07-30T12:37:11;24.50;63.60
30244;DHT22;64022;53.652;9.792;2023-07-30T12:39:37;24.50;63.60
30244;DHT22;64022;53.652;9.792;2023-07-30T12:42:02;24.50;63.50
30244;DHT22;64022;53.652;9.792;2023-07-30T12:44:28;24.50;63.50
30244;DHT22;64022;53.652;9.792;2023-07-30T12:46:53;24.50;63.50
30244;DHT22;64022;53.652;9.792;2023-07-30T12:49:19;24.50;63.40
30244;DHT22;64022;53.652;9.792;2023-07-30T12:51:44;24.50;63.40
30244;DHT22;64022;53.652;9.792;2023-07-30T12:54:10;24.50;63.30
30244;DHT22;64022;53.652;9.792;2023-07-30T12:56:35;24.50;63.30
30244;DHT22;64022;53.652;9.792;2023-07-30T12:59:01;24.50;63.20
30244;DHT22;64022;53.652;9.792;2023-07-30T13:01:26;24.50;63.70
30244;DHT22;64022;53.652;9.792;2023-07-30T13:03:52;24.50;63.10
30244;DHT22;64022;53.652;9.792;2023-07-30T13:06:22;24.50;63.10
30244;DHT22;64022;53.652;9.792;2023-07-30T13:08:48;24.50;63.00
30244;DHT22;64022;53.652;9.792;2023-07-30T13:11:13;24.50;62.90
30244;DHT22;64022;53.652;9.792;2023-07-30T13:13:39;24.50;62.80
30244;DHT22;64022;53.652;9.792;2023-07-30T13:16:05;24.50;63.30
30244;DHT22;64022;53.652;9.792;2023-07-30T13:18:30;24.50;62.70
30244;DHT22;64022;53.652;9.792;2023-07-30T13:20:56;24.50;62.70
30244;DHT22;64022;53.652;9.792;2023-07-30T13:23:21;24.50;62.60
30244;DHT22;64022;53.652;9.792;2023-07-30T13:25:46;24.50;62.50
30244;DHT22;64022;53.652;9.792;2023-07-30T13:28:12;24.50;62.50
30244;DHT22;64022;53.652;9.792;2023-07-30T13:30:37;24.40;62.40
30244;DHT22;64022;53.652;9.792;2023-07-30T13:33:03;24.50;62.40
30244;DHT22;64022;53.652;9.792;2023-07-30T13:35:28;24.50;62.40
30244;DHT22;64022;53.652;9.792;2023-07-30T13:37:54;24.50;62.30
30244;DHT22;64022;53.652;9.792;2023-07-30T13:40:19;24.50;62.30
30244;DHT22;64022;53.652;9.792;2023-07-30T13:42:45;24.50;62.30
30244;DHT22;64022;53.652;9.792;2023-07-30T13:45:10;24.50;62.20
30244;DHT22;64022;53.652;9.792;2023-07-30T13:47:36;24.40;62.20
30244;DHT22;64022;53.652;9.792;2023-07-30T13:50:01;24.50;62.20
30244;DHT22;64022;53.652;9.792;2023-07-30T13:52:27;24.50;62.10
30244;DHT22;64022;53.652;9.792;2023-07-30T13:54:52;24.40;62.00
30244;DHT22;64022;53.652;9.792;2023-07-30T13:57:21;24.50;62.00
30244;DHT22;64022;53.652;9.792;2023-07-30T13:59:48;24.40;62.00
30244;DHT22;64022;53.652;9.792;2023-07-30T14:02:13;24.50;62.00
30244;DHT22;64022;53.652;9.792;2023-07-30T14:04:38;24.40;61.90
30244;DHT22;64022;53.652;9.792;2023-07-30T14:07:04;24.40;61.90
30244;DHT22;64022;53.652;9.792;2023-07-30T14:09:29;24.40;61.80
30244;DHT22;64022;53.652;9.792;2023-07-30T14:11:58;24.40;61.90
30244;DHT22;64022;53.652;9.792;2023-07-30T14:14:24;24.40;61.80
30244;DHT22;64022;53.652;9.792;2023-07-30T14:16:51;24.40;61.80
30244;DHT22;64022;53.652;9.792;2023-07-30T14:19:17;24.40;61.80
30244;DHT22;64022;53.652;9.792;2023-07-30T14:21:42;24.40;61.80
30244;DHT22;64022;53.652;9.792;2023-07-30T14:24:10;24.50;61.80
30244;DHT22;64022;53.652;9.792;2023-07-30T14:26:35;24.40;61.80
30244;DHT22;64022;53.652;9.792;2023-07-30T14:29:00;24.40;61.80
30244;DHT22;64022;53.652;9.792;2023-07-30T14:31:26;24.50;61.80
30244;DHT22;64022;53.652;9.792;2023-07-30T14:33:51;24.40;61.70
30244;DHT22;64022;53.652;9.792;2023-07-30T14:36:17;24.50;61.80
30244;DHT22;64022;53.652;9.792;2023-07-30T14:38:42;24.50;61.80
30244;DHT22;64022;53.652;9.792;2023-07-30T14:41:07;24.40;61.70
30244;DHT22;64022;53.652;9.792;2023-07-30T14:43:34;24.40;61.70
30244;DHT22;64022;53.652;9.792;2023-07-30T14:45:59;24.50;61.70
30244;DHT22;64022;53.652;9.792;2023-07-30T14:48:25;24.50;61.80
30244;DHT22;64022;53.652;9.792;2023-07-30T14:50:50;24.40;61.70
30244;DHT22;64022;53.652;9.792;2023-07-30T14:53:16;24.50;61.70
30244;DHT22;64022;53.652;9.792;2023-07-30T14:55:41;24.40;61.70
30244;DHT22;64022;53.652;9.792;2023-07-30T14:58:07;24.50;61.70
30244;DHT22;64022;53.652;9.792;2023-07-30T15:00:34;24.50;61.70
30244;DHT22;64022;53.652;9.792;2023-07-30T15:02:59;24.50;61.60
30244;DHT22;64022;53.652;9.792;2023-07-30T15:05:25;24.50;61.60
30244;DHT22;64022;53.652;9.792;2023-07-30T15:07:50;24.50;61.60
30244;DHT22;64022;53.652;9.792;2023-07-30T15:10:16;24.50;61.60
30244;DHT22;64022;53.652;9.792;2023-07-30T15:12:42;24.50;61.60
30244;DHT22;64022;53.652;9.792;2023-07-30T15:15:08;24.50;61.60
30244;DHT22;64022;53.652;9.792;2023-07-30T15:17:34;24.40;61.40
30244;DHT22;64022;53.652;9.792;2023-07-30T15:19:59;24.50;61.50
30244;DHT22;64022;53.652;9.792;2023-07-30T15:22:25;24.50;61.40
30244;DHT22;64022;53.652;9.792;2023-07-30T15:24:50;24.50;61.40
30244;DHT22;64022;53.652;9.792;2023-07-30T15:27:16;24.50;61.40
30244;DHT22;64022;53.652;9.792;2023-07-30T15:29:41;24.50;61.30